Terminal Aerodrome Forecast
Issued by NWS Albany, NY

Home | Current Version | Previous Version | Text Only | Print | Product List | Glossary On
Versions: 1 2 3 4 5 6 7 8 9 10 11 12 13 14 15 16 17 18 19 20 21 22 23 24 25
738
FTUS41 KALY 191206 AAA
TAFGFL
TAF AMD
KGFL 191206Z 1912/2012 00000KT 6SM BR FEW001
     FM191300 05003KT P6SM FEW005 SCT020
     FM191500 04005KT P6SM BKN035 BKN100 BKN200
     FM200000 36006KT P6SM OVC060
     FM200600 36007KT P6SM BKN025 OVC060=

USA.gov is the U.S. government's official web portal to all federal, state and local government web resources and services.